createdAt,value
2022-07-29T00:00:56.713Z,1.70
2022-07-29T00:03:23.354Z,1.50
2022-07-29T00:09:43.023Z,1.60
2022-07-29T00:12:26.471Z,1.20
2022-07-29T00:14:54.804Z,1.50
2022-07-29T00:17:21.296Z,1.23
2022-07-29T00:19:47.689Z,1.40
2022-07-29T00:22:14.038Z,1.38
2022-07-29T00:24:40.496Z,1.60
2022-07-29T00:27:06.947Z,1.40
2022-07-29T00:29:34.658Z,1.63
2022-07-29T00:32:01.911Z,1.63
2022-07-29T00:34:46.957Z,1.30
2022-07-29T00:37:13.402Z,1.30
2022-07-29T00:39:39.769Z,1.83
2022-07-29T00:42:06.529Z,1.67
2022-07-29T00:44:37.738Z,1.63
2022-07-29T00:47:04.225Z,1.75
2022-07-29T00:49:30.696Z,1.27
2022-07-29T00:51:57.829Z,1.65
2022-07-29T00:54:24.408Z,1.60
2022-07-29T00:56:50.810Z,1.58
2022-07-29T00:59:17.179Z,1.60
2022-07-29T01:01:43.587Z,1.75
2022-07-29T01:04:10.084Z,1.42
2022-07-29T01:06:36.912Z,1.48
2022-07-29T01:09:04.168Z,1.65
2022-07-29T01:11:30.577Z,1.50
2022-07-29T01:13:57.739Z,1.33
2022-07-29T01:16:33.206Z,1.77
2022-07-29T01:19:13.843Z,1.50
2022-07-29T01:21:53.591Z,1.50
2022-07-29T01:24:44.317Z,1.58
2022-07-29T01:27:29.265Z,1.48
2022-07-29T01:29:59.693Z,1.90
2022-07-29T01:32:32.313Z,1.60
2022-07-29T01:35:16.740Z,1.63
2022-07-29T01:38:06.360Z,2.17
2022-07-29T01:40:48.680Z,1.42
2022-07-29T01:43:21.901Z,1.55
2022-07-29T01:45:57.185Z,1.65
2022-07-29T01:48:40.283Z,1.40
2022-07-29T01:51:13.449Z,1.67
2022-07-29T01:53:45.517Z,1.50
2022-07-29T01:56:13.181Z,2.00
2022-07-29T01:58:42.347Z,1.80
2022-07-29T02:01:10.828Z,1.73
2022-07-29T02:03:39.159Z,1.48
2022-07-29T02:06:08.027Z,1.70
2022-07-29T02:08:36.958Z,1.48
2022-07-29T02:11:05.775Z,1.50
2022-07-29T02:13:35.184Z,1.70
2022-07-29T02:16:05.946Z,1.50
2022-07-29T02:18:33.372Z,1.70
2022-07-29T02:21:01.884Z,1.73
2022-07-29T02:23:28.621Z,1.58
2022-07-29T02:25:58.106Z,1.58
2022-07-29T02:28:28.562Z,1.55
2022-07-29T02:30:58.839Z,1.75
2022-07-29T02:33:26.548Z,1.60
2022-07-29T02:35:53.573Z,1.80
2022-07-29T02:38:40.856Z,2.00
2022-07-29T02:41:12.430Z,1.90
2022-07-29T02:43:41.405Z,1.70
2022-07-29T02:46:29.044Z,1.70
2022-07-29T02:49:16.432Z,1.70
2022-07-29T02:51:46.560Z,1.60
2022-07-29T02:54:22.019Z,1.80
2022-07-29T02:56:49.924Z,1.80
2022-07-29T02:59:22.922Z,1.90
2022-07-29T03:01:50.939Z,1.90
2022-07-29T03:04:20.700Z,1.60
2022-07-29T03:06:49.383Z,1.85
2022-07-29T03:09:15.922Z,1.70
2022-07-29T03:11:49.675Z,1.63
2022-07-29T03:16:49.064Z,1.83
2022-07-29T03:19:16.308Z,2.13
2022-07-29T03:21:42.649Z,1.65
2022-07-29T03:24:10.742Z,1.90
2022-07-29T03:26:37.656Z,2.00
2022-07-29T03:29:04.044Z,1.85
2022-07-29T03:31:30.450Z,1.88
2022-07-29T03:33:56.929Z,2.00
2022-07-29T03:36:23.396Z,1.70
2022-07-29T03:38:50.287Z,1.90
2022-07-29T03:41:18.310Z,1.80
2022-07-29T03:43:51.128Z,1.60
2022-07-29T03:46:18.795Z,1.70
2022-07-29T03:48:51.571Z,1.88
2022-07-29T03:51:18.172Z,2.00
2022-07-29T03:53:45.422Z,1.88
2022-07-29T03:56:17.749Z,1.80
2022-07-29T03:58:45.268Z,1.92
2022-07-29T04:01:12.686Z,2.00
2022-07-29T04:03:40.118Z,1.73
2022-07-29T04:06:07.864Z,1.77
2022-07-29T04:08:35.574Z,1.98
2022-07-29T04:11:03.429Z,2.25
2022-07-29T04:13:29.953Z,1.70
2022-07-29T04:15:56.540Z,2.38
2022-07-29T04:18:23.083Z,2.00
2022-07-29T04:20:49.820Z,2.10
2022-07-29T04:23:16.361Z,1.90
2022-07-29T04:25:43.620Z,1.83
2022-07-29T04:28:11.181Z,2.13
2022-07-29T04:30:38.553Z,2.20
2022-07-29T04:33:07.947Z,2.10
2022-07-29T04:35:38.181Z,2.20
2022-07-29T04:38:07.147Z,2.03
2022-07-29T04:40:34.242Z,1.80
2022-07-29T04:43:01.914Z,2.10
2022-07-29T04:45:32.205Z,2.28
2022-07-29T04:47:58.564Z,1.92
2022-07-29T04:50:25.439Z,2.15
2022-07-29T04:52:51.868Z,2.10
2022-07-29T04:55:18.289Z,2.00
2022-07-29T04:57:44.803Z,3.22
2022-07-29T05:00:11.876Z,2.25
2022-07-29T05:02:38.311Z,2.13
2022-07-29T05:05:05.089Z,1.88
2022-07-29T05:07:31.465Z,2.30
2022-07-29T05:09:57.956Z,2.72
2022-07-29T05:12:25.694Z,1.85
2022-07-29T05:14:52.592Z,2.00
2022-07-29T05:17:19.064Z,1.88
2022-07-29T05:19:45.487Z,2.35
2022-07-29T05:22:11.904Z,2.10
2022-07-29T05:24:38.445Z,1.88
2022-07-29T05:27:05.311Z,3.70
2022-07-29T05:29:42.481Z,2.50
2022-07-29T05:32:13.749Z,1.98
2022-07-29T05:34:50.201Z,2.20
2022-07-29T05:37:18.568Z,2.63
2022-07-29T05:39:46.973Z,2.30
2022-07-29T05:42:14.688Z,2.95
2022-07-29T05:44:41.139Z,2.70
2022-07-29T05:47:07.481Z,2.10
2022-07-29T05:49:34.063Z,2.20
2022-07-29T05:52:00.464Z,2.50
2022-07-29T05:54:26.949Z,2.00
2022-07-29T05:56:53.295Z,2.30
2022-07-29T05:59:19.669Z,2.42
2022-07-29T06:01:46.050Z,1.90
2022-07-29T06:04:12.706Z,2.03
2022-07-29T06:06:39.305Z,2.25
2022-07-29T06:09:12.422Z,1.90
2022-07-29T06:11:39.029Z,2.28
2022-07-29T06:14:05.399Z,1.77
2022-07-29T06:16:32.435Z,1.98
2022-07-29T06:18:58.956Z,2.10
2022-07-29T06:21:25.299Z,1.98
2022-07-29T06:23:51.766Z,2.10
2022-07-29T06:26:18.115Z,2.10
2022-07-29T06:28:44.501Z,2.00
2022-07-29T06:31:11.010Z,1.95
2022-07-29T06:33:37.585Z,2.05
2022-07-29T06:36:07.319Z,2.17
2022-07-29T06:38:44.853Z,2.03
2022-07-29T06:41:16.958Z,2.00
2022-07-29T06:43:50.682Z,1.67
2022-07-29T06:46:20.382Z,2.60
2022-07-29T06:48:48.384Z,2.33
2022-07-29T06:51:15.608Z,2.00
2022-07-29T06:53:59.375Z,2.60
2022-07-29T06:56:29.071Z,1.90
2022-07-29T06:58:55.465Z,2.33
2022-07-29T07:01:22.002Z,1.80
2022-07-29T07:03:49.116Z,1.77
2022-07-29T07:06:16.570Z,1.80
2022-07-29T07:08:43.059Z,2.20
2022-07-29T07:11:09.611Z,2.20
2022-07-29T07:13:36.723Z,1.95
2022-07-29T07:16:04.057Z,2.15
2022-07-29T07:18:30.702Z,2.55
2022-07-29T07:20:57.873Z,2.00
2022-07-29T07:23:24.589Z,2.10
2022-07-29T07:25:51.025Z,2.10
2022-07-29T07:28:17.510Z,2.17
2022-07-29T07:30:44.442Z,2.10
2022-07-29T07:33:10.777Z,2.28
2022-07-29T07:35:37.131Z,2.38
2022-07-29T07:38:03.548Z,2.33
2022-07-29T07:40:30.081Z,2.08
2022-07-29T07:42:56.615Z,1.98
2022-07-29T07:45:23.090Z,2.65
2022-07-29T07:47:49.477Z,2.28
2022-07-29T07:50:19.356Z,2.20
2022-07-29T07:52:54.448Z,2.10
2022-07-29T07:57:47.986Z,2.30
2022-07-29T08:00:15.692Z,2.05
2022-07-29T08:02:43.778Z,2.30
2022-07-29T08:05:12.622Z,2.42
2022-07-29T08:07:39.393Z,2.20
2022-07-29T08:10:06.564Z,2.08
2022-07-29T08:12:33.020Z,2.30
2022-07-29T08:14:59.569Z,2.30
2022-07-29T08:17:26.192Z,2.55
2022-07-29T08:19:52.551Z,2.00
2022-07-29T08:22:18.986Z,2.20
2022-07-29T08:24:47.111Z,2.30
2022-07-29T08:27:40.700Z,2.20
2022-07-29T08:30:01.084Z,2.33
2022-07-29T08:32:52.189Z,2.10
2022-07-29T08:35:15.712Z,2.22
2022-07-29T08:37:42.793Z,2.42
2022-07-29T08:40:09.597Z,1.92
2022-07-29T08:42:36.476Z,2.45
2022-07-29T08:45:04.919Z,2.35
2022-07-29T08:47:31.627Z,2.30
2022-07-29T08:49:57.998Z,2.47
2022-07-29T08:52:26.616Z,2.22
2022-07-29T08:54:54.258Z,2.30
2022-07-29T08:57:23.999Z,2.13
2022-07-29T08:59:54.563Z,2.08
2022-07-29T09:02:22.588Z,2.67
2022-07-29T09:04:50.321Z,2.28
2022-07-29T09:07:19.013Z,2.05
2022-07-29T09:09:45.931Z,2.10
2022-07-29T09:12:12.924Z,2.50
2022-07-29T09:14:55.442Z,2.33
2022-07-29T09:17:40.728Z,2.75
2022-07-29T09:20:17.288Z,1.98
2022-07-29T09:22:44.277Z,2.00
2022-07-29T09:25:12.610Z,2.28
2022-07-29T09:27:39.919Z,2.00
2022-07-29T09:30:11.316Z,2.20
2022-07-29T09:32:59.123Z,1.92
2022-07-29T09:35:26.842Z,2.55
2022-07-29T09:37:53.976Z,2.40
2022-07-29T09:40:22.861Z,2.25
2022-07-29T09:42:49.605Z,2.22
2022-07-29T09:45:32.052Z,1.83
2022-07-29T09:48:01.368Z,2.28
2022-07-29T09:50:44.915Z,2.40
2022-07-29T09:53:11.963Z,2.72
2022-07-29T09:55:49.302Z,2.58
2022-07-29T09:58:19.779Z,2.22
2022-07-29T10:00:48.019Z,2.35
2022-07-29T10:03:16.559Z,2.35
2022-07-29T10:05:44.216Z,2.10
2022-07-29T10:08:13.140Z,2.17
2022-07-29T10:10:42.376Z,2.03
2022-07-29T10:13:16.175Z,2.40
2022-07-29T10:15:45.817Z,2.30
2022-07-29T10:18:14.635Z,2.13
2022-07-29T10:20:41.443Z,2.30
2022-07-29T10:23:07.900Z,2.53
2022-07-29T10:25:34.425Z,2.63
2022-07-29T10:28:00.880Z,2.22
2022-07-29T10:30:27.663Z,2.42
2022-07-29T10:33:51.175Z,2.25
2022-07-29T10:36:43.221Z,2.00
2022-07-29T10:39:41.784Z,2.30
2022-07-29T10:42:34.202Z,2.28
2022-07-29T10:45:02.588Z,2.38
2022-07-29T10:47:31.543Z,2.40
2022-07-29T10:50:03.694Z,2.13
2022-07-29T10:52:53.574Z,2.20
2022-07-29T10:55:35.732Z,2.40
2022-07-29T10:58:34.997Z,2.60
2022-07-29T11:01:37.120Z,2.50
2022-07-29T11:04:06.106Z,2.00
2022-07-29T11:06:59.348Z,2.13
2022-07-29T11:09:37.581Z,2.50
2022-07-29T11:12:25.408Z,2.38
2022-07-29T11:14:52.984Z,2.60
2022-07-29T11:17:19.669Z,2.20
2022-07-29T11:19:52.035Z,2.58
2022-07-29T11:22:35.947Z,2.35
2022-07-29T11:25:16.821Z,2.30
2022-07-29T11:27:45.818Z,2.22
2022-07-29T11:30:13.084Z,2.20
2022-07-29T11:32:48.441Z,2.33
2022-07-29T11:40:32.593Z,2.58
2022-07-29T11:42:59.209Z,2.97
2022-07-29T11:45:43.362Z,2.65
2022-07-29T11:48:29.387Z,2.30
2022-07-29T11:50:58.529Z,2.35
2022-07-29T11:53:25.684Z,2.50
2022-07-29T11:55:58.282Z,2.35
2022-07-29T11:58:26.015Z,2.40
2022-07-29T12:00:53.047Z,2.30
2022-07-29T12:03:33.287Z,2.30
2022-07-29T12:06:14.268Z,2.13
2022-07-29T12:08:45.791Z,2.50
2022-07-29T12:11:20.598Z,2.40
2022-07-29T12:13:49.331Z,2.58
2022-07-29T12:16:16.104Z,2.50
2022-07-29T12:19:00.489Z,2.45
2022-07-29T12:21:29.214Z,2.40
2022-07-29T12:24:01.798Z,2.38
2022-07-29T12:26:32.341Z,2.33
2022-07-29T12:29:02.440Z,2.47
2022-07-29T12:31:43.140Z,2.17
2022-07-29T12:34:13.149Z,2.22
2022-07-29T12:36:40.163Z,2.78
2022-07-29T12:39:06.776Z,2.30
2022-07-29T12:41:33.294Z,2.50
2022-07-29T12:43:59.702Z,2.38
2022-07-29T12:46:26.194Z,2.42
2022-07-29T12:48:58.175Z,2.25
2022-07-29T12:51:32.072Z,2.40
2022-07-29T12:54:11.294Z,2.30
2022-07-29T12:56:43.559Z,2.85
2022-07-29T12:59:20.287Z,2.60
2022-07-29T13:01:50.131Z,2.30
2022-07-29T13:04:27.664Z,2.50
2022-07-29T13:07:02.330Z,2.40
2022-07-29T13:09:42.513Z,2.15
2022-07-29T13:12:11.005Z,2.30
2022-07-29T13:14:46.502Z,2.63
2022-07-29T13:17:24.264Z,2.40
2022-07-29T13:19:52.762Z,2.38
2022-07-29T13:22:25.404Z,2.28
2022-07-29T13:25:00.155Z,2.40
2022-07-29T13:27:28.763Z,2.30
2022-07-29T13:30:00.326Z,2.38
2022-07-29T13:32:29.064Z,2.35
2022-07-29T13:35:01.124Z,2.85
2022-07-29T13:37:31.577Z,2.20
2022-07-29T13:39:58.446Z,2.50
2022-07-29T13:42:25.851Z,2.80
2022-07-29T13:44:52.911Z,2.30
2022-07-29T13:47:21.499Z,2.65
2022-07-29T13:49:48.717Z,2.35
2022-07-29T13:52:16.652Z,2.38
2022-07-29T13:54:44.307Z,2.35
2022-07-29T13:57:11.935Z,2.47
2022-07-29T13:59:40.092Z,2.70
2022-07-29T14:02:06.799Z,2.72
2022-07-29T14:04:34.332Z,2.60
2022-07-29T14:07:03.642Z,2.33
2022-07-29T14:09:30.767Z,2.65
2022-07-29T14:12:07.897Z,2.78
2022-07-29T14:14:34.287Z,2.50
2022-07-29T14:17:00.700Z,2.60
2022-07-29T14:19:27.096Z,2.38
2022-07-29T14:21:53.479Z,1.90
2022-07-29T14:24:21.431Z,2.22
2022-07-29T14:26:49.546Z,2.58
2022-07-29T14:29:16.095Z,2.67
2022-07-29T14:31:43.953Z,2.38
2022-07-29T14:34:10.475Z,2.45
2022-07-29T14:36:36.865Z,2.50
2022-07-29T14:39:03.479Z,2.63
2022-07-29T14:41:29.853Z,2.35
2022-07-29T14:43:56.252Z,2.75
2022-07-29T14:46:22.735Z,2.50
2022-07-29T14:48:49.213Z,2.75
2022-07-29T14:51:15.701Z,2.60
2022-07-29T14:53:42.117Z,2.20
2022-07-29T14:56:34.202Z,2.40
2022-07-29T14:58:54.951Z,2.55
2022-07-29T15:01:21.335Z,2.50
2022-07-29T15:03:47.738Z,2.95
2022-07-29T15:06:14.189Z,2.40
2022-07-29T15:08:40.622Z,2.78
2022-07-29T15:11:07.039Z,2.38
2022-07-29T15:13:34.349Z,2.25
2022-07-29T15:16:00.888Z,2.97
2022-07-29T15:18:27.296Z,2.53
2022-07-29T15:20:53.742Z,2.72
2022-07-29T15:23:20.674Z,2.78
2022-07-29T15:25:47.315Z,2.65
2022-07-29T15:28:13.697Z,2.00
2022-07-29T15:30:43.017Z,2.55
2022-07-29T15:33:10.351Z,2.50
2022-07-29T15:35:40.520Z,2.50
2022-07-29T15:38:07.497Z,2.65
2022-07-29T15:40:34.158Z,2.80
2022-07-29T15:43:06.461Z,3.25
2022-07-29T15:45:40.170Z,2.53
2022-07-29T15:48:08.337Z,2.53
2022-07-29T15:50:35.299Z,2.45
2022-07-29T15:53:02.108Z,2.50
2022-07-29T15:55:28.520Z,2.45
2022-07-29T15:57:58.571Z,2.83
2022-07-29T16:00:27.059Z,2.50
2022-07-29T16:02:53.433Z,2.50
2022-07-29T16:05:19.848Z,3.20
2022-07-29T16:07:46.249Z,2.83
2022-07-29T16:10:12.731Z,2.80
2022-07-29T16:12:39.182Z,2.58
2022-07-29T16:15:09.969Z,2.58
2022-07-29T16:17:37.993Z,2.47
2022-07-29T16:20:05.774Z,2.75
2022-07-29T16:22:32.160Z,2.65
2022-07-29T16:24:58.604Z,2.10
2022-07-29T16:27:35.707Z,2.22
2022-07-29T16:30:07.853Z,2.42
2022-07-29T16:32:34.502Z,2.05
2022-07-29T16:35:02.662Z,2.63
2022-07-29T16:37:33.366Z,2.30
2022-07-29T16:39:59.819Z,2.50
2022-07-29T16:42:45.460Z,2.40
2022-07-29T16:45:12.433Z,2.50
2022-07-29T16:47:38.862Z,2.47
2022-07-29T16:50:06.172Z,2.63
2022-07-29T16:52:32.582Z,2.55
2022-07-29T16:54:59.021Z,2.60
2022-07-29T16:57:25.407Z,2.15
2022-07-29T16:59:52.022Z,2.63
2022-07-29T17:02:18.993Z,2.28
2022-07-29T17:04:45.475Z,2.70
2022-07-29T17:07:11.976Z,2.28
2022-07-29T17:09:38.426Z,2.22
2022-07-29T17:12:05.243Z,2.20
2022-07-29T17:14:31.973Z,2.33
2022-07-29T17:17:02.079Z,2.55
2022-07-29T17:19:35.261Z,2.72
2022-07-29T17:22:13.010Z,2.70
2022-07-29T17:24:42.665Z,2.40
2022-07-29T17:27:10.135Z,2.50
2022-07-29T17:29:36.665Z,2.42
2022-07-29T17:32:03.505Z,2.72
2022-07-29T17:34:29.947Z,2.58
2022-07-29T17:36:56.949Z,2.90
2022-07-29T17:39:23.933Z,4.53
2022-07-29T17:41:50.405Z,4.18
2022-07-29T17:44:16.862Z,4.57
2022-07-29T17:46:43.280Z,4.70
2022-07-29T17:49:09.728Z,4.90
2022-07-29T17:51:36.207Z,4.85
2022-07-29T17:54:02.767Z,5.05
2022-07-29T17:56:29.140Z,5.20
2022-07-29T17:58:55.877Z,6.05
2022-07-29T18:01:23.439Z,4.47
2022-07-29T18:03:50.020Z,5.57
2022-07-29T18:06:16.396Z,5.72
2022-07-29T18:08:43.064Z,5.53
2022-07-29T18:11:09.581Z,5.85
2022-07-29T18:13:41.579Z,4.97
2022-07-29T18:16:09.141Z,5.75
2022-07-29T18:18:35.651Z,5.13
2022-07-29T18:21:02.669Z,5.30
2022-07-29T18:23:29.047Z,5.05
2022-07-29T18:25:55.579Z,5.10
2022-07-29T18:28:22.322Z,4.55
2022-07-29T18:30:48.920Z,6.00
2022-07-29T18:33:21.273Z,5.85
2022-07-29T18:35:49.836Z,4.90
2022-07-29T18:38:16.842Z,4.20
2022-07-29T18:40:44.423Z,4.82
2022-07-29T18:43:11.418Z,4.50
2022-07-29T18:45:39.575Z,5.22
2022-07-29T18:48:08.343Z,4.55
2022-07-29T18:50:39.491Z,4.35
2022-07-29T18:53:06.033Z,4.47
2022-07-29T18:55:32.531Z,3.90
2022-07-29T18:57:58.968Z,4.03
2022-07-29T19:00:26.516Z,4.05
2022-07-29T19:02:53.514Z,4.35
2022-07-29T19:05:20.429Z,3.67
2022-07-29T19:07:46.800Z,4.35
2022-07-29T19:10:13.524Z,4.50
2022-07-29T19:12:40.001Z,4.47
2022-07-29T19:15:07.672Z,4.80
2022-07-29T19:17:34.101Z,4.95
2022-07-29T19:20:00.474Z,4.88
2022-07-29T19:22:26.867Z,4.88
2022-07-29T19:24:53.290Z,4.03
2022-07-29T19:27:19.923Z,3.70
2022-07-29T19:29:46.304Z,3.85
2022-07-29T19:32:13.567Z,4.10
2022-07-29T19:35:10.177Z,3.75
2022-07-29T19:37:37.225Z,3.47
2022-07-29T19:40:04.327Z,3.83
2022-07-29T19:42:30.734Z,4.13
2022-07-29T19:44:57.075Z,4.13
2022-07-29T19:47:23.500Z,4.10
2022-07-29T19:49:49.935Z,4.45
2022-07-29T19:52:16.384Z,4.50
2022-07-29T19:54:43.023Z,4.43
2022-07-29T19:57:09.650Z,4.28
2022-07-29T19:59:36.068Z,4.68
2022-07-29T20:02:02.645Z,4.90
2022-07-29T20:04:29.356Z,4.25
2022-07-29T20:07:01.070Z,4.68
2022-07-29T20:09:28.313Z,4.57
2022-07-29T20:11:54.785Z,5.38
2022-07-29T20:14:21.523Z,5.00
2022-07-29T20:16:48.049Z,5.00
2022-07-29T20:19:14.522Z,5.05
2022-07-29T20:21:40.948Z,5.10
2022-07-29T20:24:07.845Z,5.15
2022-07-29T20:26:34.260Z,5.10
2022-07-29T20:29:00.681Z,4.65
2022-07-29T20:31:27.502Z,5.22
2022-07-29T20:33:53.921Z,6.10
2022-07-29T20:36:20.328Z,5.78
2022-07-29T20:38:46.708Z,5.45
2022-07-29T20:41:14.199Z,6.28
2022-07-29T20:43:40.960Z,4.85
2022-07-29T20:46:07.422Z,5.03
2022-07-29T20:48:33.851Z,5.82
2022-07-29T20:51:00.301Z,5.68
2022-07-29T20:53:26.705Z,6.07
2022-07-29T20:55:53.136Z,6.53
2022-07-29T20:58:19.830Z,6.30
2022-07-29T21:00:46.417Z,6.22
2022-07-29T21:03:13.227Z,6.25
2022-07-29T21:05:42.337Z,5.95
2022-07-29T21:08:11.184Z,6.05
2022-07-29T21:10:37.548Z,6.82
2022-07-29T21:13:03.913Z,6.57
2022-07-29T21:15:30.540Z,6.35
2022-07-29T21:18:05.537Z,6.53
2022-07-29T21:20:32.018Z,6.32
2022-07-29T21:22:58.436Z,6.05
2022-07-29T21:25:26.733Z,6.65
2022-07-29T21:28:11.597Z,6.50
2022-07-29T21:30:37.997Z,6.45
2022-07-29T21:33:04.561Z,5.95
2022-07-29T21:36:06.323Z,5.90
2022-07-29T21:38:18.324Z,5.82
2022-07-29T21:40:50.042Z,5.75
2022-07-29T21:43:17.456Z,4.68
2022-07-29T21:45:47.358Z,6.10
2022-07-29T21:48:14.233Z,5.70
2022-07-29T21:50:40.609Z,5.90
2022-07-29T21:53:07.001Z,6.35
2022-07-29T21:55:33.539Z,5.95
2022-07-29T21:57:59.945Z,6.65
2022-07-29T22:00:26.698Z,6.32
2022-07-29T22:02:53.433Z,5.82
2022-07-29T22:05:20.267Z,6.05
2022-07-29T22:07:55.357Z,7.35
2022-07-29T22:10:24.109Z,6.82
2022-07-29T22:12:52.123Z,7.38
2022-07-29T22:15:18.714Z,7.57
2022-07-29T22:17:45.280Z,7.00
2022-07-29T22:20:12.005Z,7.53
2022-07-29T22:22:39.136Z,6.88
2022-07-29T22:25:06.968Z,6.75
2022-07-29T22:27:33.599Z,6.32
2022-07-29T22:30:00.207Z,6.85
2022-07-29T22:32:26.841Z,6.43
2022-07-29T22:34:53.205Z,6.43
2022-07-29T22:37:19.656Z,6.18
2022-07-29T22:39:46.105Z,6.25
2022-07-29T22:42:12.628Z,5.97
2022-07-29T22:44:38.985Z,6.50
2022-07-29T22:47:05.733Z,5.78
2022-07-29T22:49:32.412Z,5.97
2022-07-29T22:52:00.108Z,6.30
2022-07-29T22:54:26.900Z,6.45
2022-07-29T22:56:53.545Z,6.30
2022-07-29T22:59:19.894Z,6.93
2022-07-29T23:01:46.319Z,6.25
2022-07-29T23:04:12.780Z,7.10
2022-07-29T23:06:39.241Z,6.95
2022-07-29T23:09:06.186Z,8.82
2022-07-29T23:11:32.870Z,8.93
2022-07-29T23:13:59.229Z,10.82
2022-07-29T23:16:26.487Z,12.02
2022-07-29T23:18:53.324Z,8.85
2022-07-29T23:21:20.747Z,9.27
2022-07-29T23:23:48.424Z,8.52
2022-07-29T23:26:16.683Z,8.00
2022-07-29T23:28:46.264Z,7.80
2022-07-29T23:31:13.552Z,8.57
2022-07-29T23:33:40.993Z,8.63
2022-07-29T23:36:07.595Z,7.78
2022-07-29T23:38:33.978Z,9.82
2022-07-29T23:41:02.165Z,9.20
2022-07-29T23:43:28.759Z,9.35
2022-07-29T23:45:55.897Z,9.05
2022-07-29T23:48:24.675Z,9.02
2022-07-29T23:50:51.252Z,8.20
2022-07-29T23:53:17.699Z,9.48
2022-07-29T23:55:44.232Z,9.43
2022-07-29T23:58:10.791Z,9.20
